createdAt,value
2023-03-05T00:00:30.313Z,19.43
2023-03-05T00:01:12.789Z,20.33
2023-03-05T00:01:45.085Z,21.23
2023-03-05T00:02:17.382Z,19.77
2023-03-05T00:02:49.780Z,21.03
2023-03-05T00:03:22.296Z,20.17
2023-03-05T00:03:56.072Z,18.13
2023-03-05T00:04:28.463Z,20.13
2023-03-05T00:05:00.770Z,20.87
2023-03-05T00:05:34.874Z,19.83
2023-03-05T00:06:08.310Z,20.60
2023-03-05T00:06:41.148Z,19.90
2023-03-05T00:07:14.369Z,20.33
2023-03-05T00:07:47.449Z,19.93
2023-03-05T00:08:19.731Z,19.20
2023-03-05T00:08:53.566Z,19.57
2023-03-05T00:09:25.875Z,19.67
2023-03-05T00:10:02.537Z,20.03
2023-03-05T00:10:34.842Z,19.73
2023-03-05T00:11:10.112Z,19.13
2023-03-05T00:11:42.529Z,19.67
2023-03-05T00:12:14.988Z,20.47
2023-03-05T00:12:47.239Z,19.57
2023-03-05T00:13:19.563Z,19.03
2023-03-05T00:13:52.706Z,19.30
2023-03-05T00:14:25.049Z,18.17
2023-03-05T00:14:57.306Z,18.90
2023-03-05T00:15:29.615Z,18.93
2023-03-05T00:16:07.413Z,18.83
2023-03-05T00:16:40.333Z,18.73
2023-03-05T00:17:12.632Z,19.17
2023-03-05T00:17:44.917Z,19.67
2023-03-05T00:18:17.432Z,19.07
2023-03-05T00:18:50.029Z,19.07
2023-03-05T00:19:22.381Z,17.57
2023-03-05T00:19:54.671Z,18.90
2023-03-05T00:20:27.022Z,18.70
2023-03-05T00:20:59.559Z,18.63
2023-03-05T00:21:35.321Z,18.30
2023-03-05T00:22:07.794Z,18.73
2023-03-05T00:22:40.070Z,17.67
2023-03-05T00:23:12.620Z,17.37
2023-03-05T00:23:44.908Z,18.37
2023-03-05T00:24:18.429Z,18.50
2023-03-05T00:24:51.741Z,19.20
2023-03-05T00:25:24.029Z,18.27
2023-03-05T00:25:56.423Z,17.90
2023-03-05T00:26:29.323Z,17.27
2023-03-05T00:27:01.761Z,17.60
2023-03-05T00:27:34.054Z,18.30
2023-03-05T00:28:06.513Z,18.80
2023-03-05T00:28:39.439Z,18.07
2023-03-05T00:29:15.815Z,16.23
2023-03-05T00:29:48.122Z,17.90
2023-03-05T00:30:20.417Z,18.50
2023-03-05T00:30:52.728Z,18.13
2023-03-05T00:31:30.394Z,18.57
2023-03-05T00:32:02.817Z,18.53
2023-03-05T00:32:36.445Z,18.63
2023-03-05T00:33:11.919Z,17.90
2023-03-05T00:33:44.286Z,17.43
2023-03-05T00:34:18.883Z,17.57
2023-03-05T00:34:51.210Z,19.30
2023-03-05T00:35:23.490Z,18.63
2023-03-05T00:35:55.841Z,18.07
2023-03-05T00:36:28.463Z,17.63
2023-03-05T00:37:00.749Z,17.83
2023-03-05T00:37:33.125Z,17.57
2023-03-05T00:38:05.417Z,17.17
2023-03-05T00:38:37.833Z,18.60
2023-03-05T00:39:10.730Z,18.43
2023-03-05T00:39:43.066Z,18.37
2023-03-05T00:40:15.541Z,18.30
2023-03-05T00:40:50.788Z,18.23
2023-03-05T00:41:23.450Z,17.77
2023-03-05T00:41:55.746Z,18.03
2023-03-05T00:42:28.011Z,17.30
2023-03-05T00:43:00.286Z,17.33
2023-03-05T00:43:32.603Z,17.70
2023-03-05T00:44:05.143Z,17.73
2023-03-05T00:44:37.434Z,18.77
2023-03-05T00:45:10.608Z,18.10
2023-03-05T00:45:42.903Z,17.87
2023-03-05T00:46:15.413Z,17.97
2023-03-05T00:46:48.422Z,16.43
2023-03-05T00:47:20.766Z,17.67
2023-03-05T00:47:53.032Z,18.07
2023-03-05T00:48:25.710Z,18.47
2023-03-05T00:48:58.191Z,18.20
2023-03-05T00:49:30.464Z,18.17
2023-03-05T00:50:03.602Z,17.30
2023-03-05T00:50:35.888Z,16.90
2023-03-05T00:51:09.290Z,18.10
2023-03-05T00:51:41.692Z,17.57
2023-03-05T00:52:14.004Z,18.57
2023-03-05T00:52:46.263Z,19.07
2023-03-05T00:53:19.091Z,18.23
2023-03-05T00:53:51.488Z,18.13
2023-03-05T00:54:23.910Z,17.83
2023-03-05T00:54:56.281Z,18.83
2023-03-05T00:55:28.562Z,18.93
2023-03-05T00:56:00.854Z,18.43
2023-03-05T00:56:33.516Z,18.97
2023-03-05T00:57:05.855Z,17.73
2023-03-05T00:57:38.167Z,18.87
2023-03-05T00:58:10.578Z,19.87
2023-03-05T00:58:42.850Z,20.27
2023-03-05T00:59:15.602Z,18.40
2023-03-05T00:59:47.960Z,18.47
2023-03-05T01:00:20.458Z,18.17
2023-03-05T01:00:52.782Z,18.37
2023-03-05T01:01:25.605Z,18.27
2023-03-05T01:01:57.892Z,18.93
2023-03-05T01:02:30.189Z,19.77
2023-03-05T01:03:02.950Z,19.63
2023-03-05T01:03:36.107Z,18.40
2023-03-05T01:04:08.636Z,17.90
2023-03-05T01:04:41.598Z,18.50
2023-03-05T01:05:15.258Z,18.30
2023-03-05T01:05:47.600Z,19.90
2023-03-05T01:06:19.919Z,20.33
2023-03-05T01:06:52.232Z,19.80
2023-03-05T01:07:24.575Z,18.53
2023-03-05T01:07:57.216Z,19.40
2023-03-05T01:08:29.587Z,19.27
2023-03-05T01:09:01.955Z,19.33
2023-03-05T01:09:34.251Z,19.40
2023-03-05T01:10:07.534Z,20.50
2023-03-05T01:10:39.839Z,18.30
2023-03-05T01:11:12.439Z,19.30
2023-03-05T01:11:44.814Z,19.47
2023-03-05T01:12:17.081Z,19.80
2023-03-05T01:12:49.984Z,20.93
2023-03-05T01:13:22.341Z,21.50
2023-03-05T01:13:54.645Z,20.30
2023-03-05T01:14:28.361Z,20.20
2023-03-05T01:15:00.719Z,20.53
2023-03-05T01:15:33.389Z,19.57
2023-03-05T01:16:06.731Z,19.43
2023-03-05T01:16:39.058Z,20.20
2023-03-05T01:17:11.333Z,20.57
2023-03-05T01:17:43.695Z,21.50
2023-03-05T01:18:16.002Z,21.77
2023-03-05T01:18:48.288Z,22.00
2023-03-05T01:19:20.572Z,21.27
2023-03-05T01:19:52.875Z,21.03
2023-03-05T01:20:25.400Z,19.77
2023-03-05T01:20:57.931Z,19.60
2023-03-05T01:21:30.468Z,20.47
2023-03-05T01:22:03.210Z,19.93
2023-03-05T01:22:35.512Z,20.73
2023-03-05T01:23:07.832Z,20.37
2023-03-05T01:23:40.203Z,20.50
2023-03-05T01:24:12.541Z,20.87
2023-03-05T01:24:44.927Z,20.23
2023-03-05T01:25:18.146Z,20.20
2023-03-05T01:25:58.927Z,21.13
2023-03-05T01:26:31.585Z,22.13
2023-03-05T01:27:03.953Z,22.43
2023-03-05T01:27:36.605Z,20.57
2023-03-05T01:28:09.384Z,19.93
2023-03-05T01:28:41.660Z,21.60
2023-03-05T01:29:13.907Z,21.47
2023-03-05T01:29:46.161Z,21.17
2023-03-05T01:30:18.669Z,21.13
2023-03-05T01:30:51.106Z,21.87
2023-03-05T01:31:23.390Z,22.33
2023-03-05T01:31:55.770Z,22.50
2023-03-05T01:32:30.359Z,22.00
2023-03-05T01:33:03.669Z,21.83
2023-03-05T01:33:36.130Z,21.67
2023-03-05T01:34:08.388Z,21.90
2023-03-05T01:34:42.004Z,22.40
2023-03-05T01:35:20.557Z,22.17
2023-03-05T01:35:52.977Z,22.73
2023-03-05T01:36:25.355Z,23.83
2023-03-05T01:36:57.687Z,23.13
2023-03-05T01:37:29.999Z,21.87
2023-03-05T01:38:02.265Z,22.77
2023-03-05T01:38:34.528Z,23.63
2023-03-05T01:39:06.814Z,24.13
2023-03-05T01:39:39.102Z,21.77
2023-03-05T01:40:13.022Z,21.80
2023-03-05T01:40:45.446Z,22.43
2023-03-05T01:41:19.344Z,24.10
2023-03-05T01:41:51.642Z,22.23
2023-03-05T01:42:23.946Z,23.20
2023-03-05T01:43:08.496Z,23.47
2023-03-05T01:43:41.266Z,23.17
2023-03-05T01:44:25.019Z,21.97
2023-03-05T01:45:13.799Z,22.87
2023-03-05T01:46:13.583Z,24.47
2023-03-05T01:46:46.290Z,22.93
2023-03-05T01:47:18.634Z,23.40
2023-03-05T01:47:51.504Z,24.27
2023-03-05T01:48:23.799Z,23.47
2023-03-05T01:49:05.349Z,22.87
2023-03-05T01:49:41.095Z,24.13
2023-03-05T01:50:17.693Z,23.87
2023-03-05T01:50:49.991Z,24.43
2023-03-05T01:51:26.945Z,23.10
2023-03-05T01:52:06.706Z,22.00
2023-03-05T01:52:43.743Z,23.27
2023-03-05T01:53:16.043Z,23.87
2023-03-05T01:53:48.706Z,22.63
2023-03-05T01:54:24.670Z,22.97
2023-03-05T01:55:01.428Z,24.83
2023-03-05T01:55:37.226Z,23.87
2023-03-05T01:56:09.908Z,23.40
2023-03-05T01:56:45.831Z,24.63
2023-03-05T01:57:26.689Z,24.17
2023-03-05T01:58:12.890Z,22.93
2023-03-05T01:58:45.959Z,23.30
2023-03-05T01:59:19.684Z,23.00
2023-03-05T01:59:59.106Z,23.33
2023-03-05T02:00:37.588Z,24.37
2023-03-05T02:01:10.029Z,23.50
2023-03-05T02:01:46.104Z,23.17
2023-03-05T02:02:22.150Z,23.87
2023-03-05T02:02:55.200Z,23.83
2023-03-05T02:03:27.530Z,24.80
2023-03-05T02:04:01.058Z,25.13
2023-03-05T02:04:41.443Z,25.10
2023-03-05T02:05:18.944Z,23.93
2023-03-05T02:05:51.234Z,24.50
2023-03-05T02:06:23.538Z,24.03
2023-03-05T02:06:56.458Z,25.80
2023-03-05T02:07:30.029Z,24.90
2023-03-05T02:08:06.177Z,23.20
2023-03-05T02:08:38.438Z,24.00
2023-03-05T02:09:11.150Z,23.23
2023-03-05T02:09:43.542Z,23.63
2023-03-05T02:10:32.033Z,23.23
2023-03-05T02:11:04.739Z,24.40
2023-03-05T02:11:37.430Z,23.23
2023-03-05T02:12:12.487Z,24.17
2023-03-05T02:12:44.948Z,25.50
2023-03-05T02:13:29.534Z,24.43
2023-03-05T02:14:04.065Z,23.37
2023-03-05T02:14:36.850Z,24.17
2023-03-05T02:15:10.126Z,24.77
2023-03-05T02:15:42.803Z,23.77
2023-03-05T02:16:15.087Z,24.30
2023-03-05T02:16:47.543Z,23.50
2023-03-05T02:17:19.869Z,23.10
2023-03-05T02:17:52.251Z,23.83
2023-03-05T02:18:24.850Z,24.10
2023-03-05T02:18:57.251Z,23.43
2023-03-05T02:19:29.579Z,23.83
2023-03-05T02:20:09.777Z,25.70
2023-03-05T02:20:57.257Z,24.67
2023-03-05T02:21:39.122Z,24.70
2023-03-05T02:22:15.561Z,24.80
2023-03-05T02:22:47.871Z,23.73
2023-03-05T02:23:22.614Z,23.80
2023-03-05T02:23:54.967Z,23.80
2023-03-05T02:24:37.305Z,23.47
2023-03-05T02:25:20.942Z,24.30
2023-03-05T02:25:53.817Z,24.03
2023-03-05T02:26:26.169Z,24.50
2023-03-05T02:26:58.901Z,24.50
2023-03-05T02:27:35.230Z,23.90
2023-03-05T02:28:28.421Z,24.73
2023-03-05T02:29:03.002Z,24.73
2023-03-05T02:29:41.872Z,24.73
2023-03-05T02:30:14.394Z,24.63
2023-03-05T02:30:46.845Z,23.17
2023-03-05T02:31:22.848Z,23.70
2023-03-05T02:31:55.484Z,23.20
2023-03-05T02:32:27.868Z,23.47
2023-03-05T02:33:00.146Z,24.30
2023-03-05T02:33:32.497Z,24.40
2023-03-05T02:34:05.666Z,22.97
2023-03-05T02:34:38.133Z,23.37
2023-03-05T02:35:10.448Z,24.63
2023-03-05T02:35:43.801Z,24.60
2023-03-05T02:36:17.558Z,23.17
2023-03-05T02:36:55.536Z,24.20
2023-03-05T02:37:27.843Z,24.23
2023-03-05T02:38:00.267Z,24.53
2023-03-05T02:38:32.738Z,22.80
2023-03-05T02:39:05.060Z,24.37
2023-03-05T02:39:37.964Z,23.93
2023-03-05T02:40:11.903Z,23.33
2023-03-05T02:40:44.337Z,23.20
2023-03-05T02:41:16.656Z,25.40
2023-03-05T02:41:48.951Z,26.23
2023-03-05T02:42:21.220Z,23.07
2023-03-05T02:42:53.800Z,22.77
2023-03-05T02:43:26.570Z,23.80
2023-03-05T02:43:58.893Z,22.83
2023-03-05T02:44:31.215Z,23.03
2023-03-05T02:45:04.233Z,24.20
2023-03-05T02:45:37.227Z,23.20
2023-03-05T02:46:09.610Z,22.77
2023-03-05T02:46:41.968Z,22.27
2023-03-05T02:47:14.226Z,23.37
2023-03-05T02:47:46.548Z,22.70
2023-03-05T02:48:18.834Z,22.33
2023-03-05T02:48:51.206Z,22.73
2023-03-05T02:49:23.550Z,22.87
2023-03-05T02:49:56.513Z,21.47
2023-03-05T02:50:30.072Z,22.30
2023-03-05T02:51:05.221Z,23.53
2023-03-05T02:51:37.587Z,23.03
2023-03-05T02:52:09.868Z,22.27
2023-03-05T02:52:42.179Z,23.40
2023-03-05T02:53:14.540Z,23.47
2023-03-05T02:53:46.926Z,23.37
2023-03-05T02:54:19.312Z,21.80
2023-03-05T02:54:52.347Z,21.43
2023-03-05T02:55:24.615Z,22.20
2023-03-05T02:55:57.044Z,23.00
2023-03-05T02:56:29.344Z,22.93
2023-03-05T02:57:01.625Z,22.87
2023-03-05T02:57:33.922Z,22.50
2023-03-05T02:58:06.345Z,21.73
2023-03-05T02:58:38.648Z,22.47
2023-03-05T02:59:10.991Z,22.13
2023-03-05T02:59:43.420Z,22.70
2023-03-05T03:00:16.640Z,22.60
2023-03-05T03:00:48.924Z,22.37
2023-03-05T03:01:21.320Z,22.60
2023-03-05T03:01:53.641Z,21.63
2023-03-05T03:02:26.044Z,23.03
2023-03-05T03:02:58.346Z,21.70
2023-03-05T03:03:31.094Z,21.83
2023-03-05T03:04:03.418Z,21.80
2023-03-05T03:04:35.724Z,21.20
2023-03-05T03:05:08.517Z,21.57
2023-03-05T03:05:40.905Z,23.23
2023-03-05T03:06:13.328Z,23.03
2023-03-05T03:06:45.645Z,22.40
2023-03-05T03:07:18.309Z,22.23
2023-03-05T03:07:50.656Z,22.23
2023-03-05T03:08:22.962Z,23.87
2023-03-05T03:08:55.293Z,21.80
2023-03-05T03:09:27.590Z,23.10
2023-03-05T03:10:00.271Z,22.40
2023-03-05T03:10:33.711Z,22.63
2023-03-05T03:11:08.745Z,22.00
2023-03-05T03:11:41.003Z,21.73
2023-03-05T03:12:13.435Z,22.33
2023-03-05T03:12:45.975Z,21.77
2023-03-05T03:13:18.269Z,21.83
2023-03-05T03:13:50.697Z,22.73
2023-03-05T03:14:23.033Z,22.97
2023-03-05T03:14:55.299Z,23.17
2023-03-05T03:15:27.619Z,22.37
2023-03-05T03:16:09.241Z,22.17
2023-03-05T03:16:41.590Z,22.03
2023-03-05T03:17:19.098Z,21.77
2023-03-05T03:17:51.439Z,22.17
2023-03-05T03:18:24.379Z,21.73
2023-03-05T03:18:56.652Z,22.33
2023-03-05T03:19:28.912Z,22.17
2023-03-05T03:20:01.746Z,21.20
2023-03-05T03:20:35.021Z,23.17
2023-03-05T03:21:07.711Z,22.97
2023-03-05T03:21:39.979Z,22.30
2023-03-05T03:22:14.483Z,22.23
2023-03-05T03:22:47.326Z,21.70
2023-03-05T03:23:19.617Z,21.63
2023-03-05T03:23:51.955Z,21.83
2023-03-05T03:24:24.236Z,21.17
2023-03-05T03:24:56.529Z,20.93
2023-03-05T03:25:28.843Z,21.17
2023-03-05T03:26:01.133Z,22.53
2023-03-05T03:26:33.458Z,23.20
2023-03-05T03:27:06.382Z,24.80
2023-03-05T03:27:38.624Z,29.43
2023-03-05T03:28:10.907Z,28.83
2023-03-05T03:28:43.641Z,27.80
2023-03-05T03:29:17.744Z,24.13
2023-03-05T03:29:50.058Z,22.17
2023-03-05T03:30:22.364Z,22.03
2023-03-05T03:30:54.714Z,21.37
2023-03-05T03:31:27.106Z,21.43
2023-03-05T03:31:59.561Z,21.30
2023-03-05T03:32:32.808Z,21.70
2023-03-05T03:33:05.148Z,22.97
2023-03-05T03:33:37.436Z,22.90
2023-03-05T03:34:09.710Z,21.57
2023-03-05T03:34:42.027Z,21.37
2023-03-05T03:35:14.428Z,21.00
2023-03-05T03:35:46.774Z,22.47
2023-03-05T03:36:19.076Z,21.90
2023-03-05T03:36:52.926Z,22.20
2023-03-05T03:37:25.365Z,21.67
2023-03-05T03:37:57.658Z,22.50
2023-03-05T03:38:29.963Z,22.57
2023-03-05T03:39:02.258Z,20.87
2023-03-05T03:39:34.642Z,21.67
2023-03-05T03:40:07.524Z,21.47
2023-03-05T03:40:41.818Z,22.17
2023-03-05T03:41:14.096Z,22.80
2023-03-05T03:41:49.373Z,22.47
2023-03-05T03:42:23.028Z,22.60
2023-03-05T03:42:55.328Z,22.13
2023-03-05T03:43:27.776Z,21.07
2023-03-05T03:44:00.153Z,21.43
2023-03-05T03:44:32.534Z,21.50
2023-03-05T03:45:05.176Z,20.60
2023-03-05T03:45:42.266Z,22.77
2023-03-05T03:46:14.607Z,21.07
2023-03-05T03:46:48.622Z,20.23
2023-03-05T03:47:20.926Z,20.73
2023-03-05T03:47:53.272Z,21.70
2023-03-05T03:48:25.574Z,21.63
2023-03-05T03:48:57.853Z,22.00
2023-03-05T03:49:30.114Z,21.03
2023-03-05T03:50:02.656Z,21.57
2023-03-05T03:50:34.935Z,21.40
2023-03-05T03:51:08.141Z,21.70
2023-03-05T03:51:40.441Z,21.80
2023-03-05T03:52:12.763Z,21.20
2023-03-05T03:52:45.066Z,21.67
2023-03-05T03:53:17.544Z,21.83
2023-03-05T03:53:49.826Z,20.83
2023-03-05T03:54:22.807Z,21.10
2023-03-05T03:55:01.352Z,22.07
2023-03-05T03:55:34.458Z,25.73
2023-03-05T03:56:07.065Z,26.07
2023-03-05T03:56:39.318Z,25.27
2023-03-05T03:57:11.571Z,24.53
2023-03-05T03:57:43.936Z,23.63
2023-03-05T03:58:16.242Z,22.23
2023-03-05T03:58:52.786Z,21.00
2023-03-05T03:59:25.068Z,20.93
2023-03-05T03:59:57.358Z,21.27
2023-03-05T04:00:29.685Z,20.80
2023-03-05T04:01:02.003Z,21.17
2023-03-05T04:01:34.701Z,22.03
2023-03-05T04:02:07.441Z,21.50
2023-03-05T04:02:39.901Z,20.83
2023-03-05T04:03:12.219Z,21.47
2023-03-05T04:03:44.523Z,21.57
2023-03-05T04:04:16.921Z,20.93
2023-03-05T04:04:49.232Z,20.73
2023-03-05T04:05:21.576Z,21.27
2023-03-05T04:05:53.860Z,20.77
2023-03-05T04:06:26.169Z,20.53
2023-03-05T04:06:58.520Z,20.80
2023-03-05T04:07:30.830Z,20.70
2023-03-05T04:08:03.536Z,21.03
2023-03-05T04:08:36.375Z,20.23
2023-03-05T04:09:09.364Z,20.80
2023-03-05T04:09:41.691Z,20.37
2023-03-05T04:10:14.064Z,20.37
2023-03-05T04:10:46.381Z,20.73
2023-03-05T04:11:21.954Z,20.60
2023-03-05T04:11:54.240Z,20.90
2023-03-05T04:12:26.548Z,20.53
2023-03-05T04:12:58.857Z,20.13
2023-03-05T04:13:31.193Z,20.57
2023-03-05T04:14:04.940Z,21.00
2023-03-05T04:14:37.294Z,21.50
2023-03-05T04:15:10.851Z,21.00
2023-03-05T04:15:43.226Z,20.70
2023-03-05T04:16:16.931Z,20.63
2023-03-05T04:16:49.263Z,21.47
2023-03-05T04:17:21.510Z,21.40
2023-03-05T04:17:53.874Z,20.53
2023-03-05T04:18:26.391Z,20.93
2023-03-05T04:18:58.663Z,20.00
2023-03-05T04:19:30.985Z,20.27
2023-03-05T04:20:05.549Z,20.33
2023-03-05T04:20:37.869Z,21.57
2023-03-05T04:21:10.401Z,20.90
2023-03-05T04:21:42.766Z,21.50
2023-03-05T04:22:18.038Z,21.13
2023-03-05T04:22:50.362Z,21.73
2023-03-05T04:23:22.796Z,20.43
2023-03-05T04:23:55.106Z,20.57
2023-03-05T04:24:27.455Z,21.40
2023-03-05T04:24:59.816Z,21.33
2023-03-05T04:25:32.129Z,20.60
2023-03-05T04:26:05.099Z,21.17
2023-03-05T04:26:37.492Z,21.00
2023-03-05T04:27:10.748Z,21.00
2023-03-05T04:27:43.098Z,20.10
2023-03-05T04:28:15.383Z,19.97
2023-03-05T04:28:48.379Z,19.63
2023-03-05T04:29:20.708Z,20.47
2023-03-05T04:29:52.969Z,20.80
2023-03-05T04:30:25.315Z,21.07
2023-03-05T04:30:57.980Z,20.77
2023-03-05T04:31:30.333Z,20.97
2023-03-05T04:32:03.104Z,21.10
2023-03-05T04:32:35.497Z,20.03
2023-03-05T04:33:07.837Z,20.50
2023-03-05T04:33:40.090Z,20.03
2023-03-05T04:34:12.445Z,19.80
2023-03-05T04:34:44.755Z,20.87
2023-03-05T04:35:17.207Z,20.30
2023-03-05T04:35:50.995Z,21.27
2023-03-05T04:36:23.414Z,20.23
2023-03-05T04:36:55.782Z,19.87
2023-03-05T04:37:28.123Z,21.03
2023-03-05T04:38:00.527Z,19.83
2023-03-05T04:38:32.826Z,20.67
2023-03-05T04:39:05.387Z,19.47
2023-03-05T04:39:38.259Z,19.53
2023-03-05T04:40:11.448Z,19.53
2023-03-05T04:40:44.909Z,19.33
2023-03-05T04:41:17.257Z,18.77
2023-03-05T04:41:49.746Z,19.13
2023-03-05T04:42:22.097Z,19.10
2023-03-05T04:42:54.371Z,18.80
2023-03-05T04:43:26.651Z,19.17
2023-03-05T04:43:58.917Z,19.43
2023-03-05T04:44:31.180Z,19.07
2023-03-05T04:45:04.645Z,19.50
2023-03-05T04:45:40.000Z,20.07
2023-03-05T04:46:12.454Z,20.10
2023-03-05T04:46:45.004Z,18.90
2023-03-05T04:47:18.188Z,18.60
2023-03-05T04:47:50.608Z,19.10
2023-03-05T04:48:22.892Z,18.43
2023-03-05T04:48:55.456Z,19.17
2023-03-05T04:49:27.809Z,18.87
2023-03-05T04:50:00.191Z,19.37
2023-03-05T04:50:32.476Z,19.67
2023-03-05T04:51:05.022Z,20.03
2023-03-05T04:51:37.310Z,19.60
2023-03-05T04:52:11.790Z,18.83
2023-03-05T04:52:45.416Z,19.17
2023-03-05T04:53:17.764Z,20.53
2023-03-05T04:53:50.072Z,20.90
2023-03-05T04:54:22.396Z,19.60
2023-03-05T04:54:54.675Z,19.13
2023-03-05T04:55:27.448Z,18.97
2023-03-05T04:56:01.713Z,19.87
2023-03-05T04:56:34.370Z,20.00
2023-03-05T04:57:07.205Z,18.60
2023-03-05T04:57:39.878Z,18.40
2023-03-05T04:58:12.171Z,18.87
2023-03-05T04:58:44.538Z,19.03
2023-03-05T04:59:16.795Z,18.43
2023-03-05T04:59:49.220Z,18.83
2023-03-05T05:00:21.820Z,18.63
2023-03-05T05:00:54.128Z,18.03
2023-03-05T05:01:26.445Z,19.07
2023-03-05T05:01:58.817Z,19.30
2023-03-05T05:02:31.131Z,18.70
2023-03-05T05:03:03.678Z,19.50
2023-03-05T05:03:36.015Z,18.97
2023-03-05T05:04:08.782Z,19.40
2023-03-05T05:04:45.111Z,19.13
2023-03-05T05:05:21.087Z,18.47
2023-03-05T05:05:58.116Z,18.73
2023-03-05T05:06:30.667Z,18.10
2023-03-05T05:07:04.818Z,17.57
2023-03-05T05:07:37.116Z,18.10
2023-03-05T05:08:10.351Z,18.63
2023-03-05T05:08:43.451Z,18.47
2023-03-05T05:09:15.774Z,18.93
2023-03-05T05:09:48.078Z,18.77
2023-03-05T05:10:20.418Z,17.53
2023-03-05T05:11:01.105Z,17.30
2023-03-05T05:11:33.390Z,18.23
2023-03-05T05:12:06.030Z,18.17
2023-03-05T05:12:38.516Z,17.67
2023-03-05T05:13:10.834Z,18.33
2023-03-05T05:13:43.182Z,20.17
2023-03-05T05:14:15.449Z,19.30
2023-03-05T05:14:47.716Z,18.93
2023-03-05T05:15:20.976Z,18.63
2023-03-05T05:15:53.928Z,19.80
2023-03-05T05:16:26.270Z,20.17
2023-03-05T05:16:59.674Z,19.77
2023-03-05T05:17:33.145Z,19.73
2023-03-05T05:18:05.470Z,18.87
2023-03-05T05:18:37.909Z,19.07
2023-03-05T05:19:10.417Z,19.37
2023-03-05T05:19:42.823Z,18.83
2023-03-05T05:20:17.237Z,19.33
2023-03-05T05:20:49.882Z,18.67
2023-03-05T05:21:22.186Z,18.57
2023-03-05T05:21:54.463Z,19.50
2023-03-05T05:22:29.036Z,19.67
2023-03-05T05:23:01.310Z,18.13
2023-03-05T05:23:33.566Z,18.70
2023-03-05T05:24:06.362Z,18.57
2023-03-05T05:24:38.890Z,17.53
2023-03-05T05:25:11.694Z,17.37
2023-03-05T05:25:43.978Z,17.63
2023-03-05T05:26:16.309Z,17.63
2023-03-05T05:26:48.619Z,18.67
2023-03-05T05:27:21.448Z,18.03
2023-03-05T05:27:53.710Z,18.83
2023-03-05T05:28:26.430Z,18.37
2023-03-05T05:28:58.721Z,18.07
2023-03-05T05:29:30.982Z,18.13
2023-03-05T05:30:04.211Z,18.20
2023-03-05T05:30:36.479Z,17.97
2023-03-05T05:31:10.653Z,17.33
2023-03-05T05:31:43.042Z,17.87
2023-03-05T05:32:15.429Z,18.27
2023-03-05T05:32:47.736Z,18.40
2023-03-05T05:33:21.276Z,18.57
2023-03-05T05:33:53.581Z,17.70
2023-03-05T05:34:25.969Z,17.47
2023-03-05T05:34:59.292Z,17.50
2023-03-05T05:35:31.616Z,18.27
2023-03-05T05:36:06.254Z,18.17
2023-03-05T05:36:38.832Z,17.43
2023-03-05T05:37:11.498Z,17.43
2023-03-05T05:37:43.820Z,18.33
2023-03-05T05:38:16.192Z,17.67
2023-03-05T05:38:49.969Z,18.83
2023-03-05T05:39:22.294Z,17.87
2023-03-05T05:39:54.858Z,18.87
2023-03-05T05:40:27.166Z,18.67
2023-03-05T05:41:11.919Z,18.47
2023-03-05T05:41:44.646Z,18.07
2023-03-05T05:42:23.302Z,18.33
2023-03-05T05:42:55.677Z,18.57
2023-03-05T05:43:28.059Z,18.17
2023-03-05T05:44:00.394Z,18.33
2023-03-05T05:44:34.939Z,17.73
2023-03-05T05:45:08.033Z,18.10
2023-03-05T05:45:40.597Z,17.53
2023-03-05T05:46:18.901Z,17.20
2023-03-05T05:46:51.312Z,16.87
2023-03-05T05:47:23.632Z,16.97
2023-03-05T05:47:55.905Z,17.73
2023-03-05T05:48:32.372Z,17.37
2023-03-05T05:49:04.658Z,17.73
2023-03-05T05:49:36.915Z,17.67
2023-03-05T05:50:11.316Z,17.37
2023-03-05T05:50:43.591Z,18.17
2023-03-05T05:51:19.583Z,18.83
2023-03-05T05:51:51.902Z,18.57
2023-03-05T05:52:24.187Z,17.57
2023-03-05T05:52:56.504Z,18.03
2023-03-05T05:53:28.788Z,17.77
2023-03-05T05:54:01.205Z,17.87
2023-03-05T05:54:33.685Z,18.97
2023-03-05T05:55:06.563Z,17.73
2023-03-05T05:55:41.207Z,18.00
2023-03-05T05:56:15.092Z,18.23
2023-03-05T05:56:47.409Z,18.80
2023-03-05T05:57:19.713Z,17.80
2023-03-05T05:57:52.012Z,18.97
2023-03-05T05:58:24.321Z,18.97
2023-03-05T05:58:56.839Z,18.00
2023-03-05T05:59:29.144Z,17.00
2023-03-05T06:00:01.486Z,18.23
2023-03-05T06:00:33.870Z,17.97
2023-03-05T06:01:30.596Z,18.17
2023-03-05T06:02:03.779Z,18.03
2023-03-05T06:02:42.127Z,18.80
2023-03-05T06:03:14.834Z,18.53
2023-03-05T06:03:47.899Z,17.70
2023-03-05T06:04:20.189Z,17.30
2023-03-05T06:04:52.504Z,17.10
2023-03-05T06:05:24.909Z,17.33
2023-03-05T06:05:58.390Z,18.20
2023-03-05T06:06:30.930Z,17.90
2023-03-05T06:07:03.894Z,17.90
2023-03-05T06:07:36.356Z,18.53
2023-03-05T06:08:09.103Z,18.53
2023-03-05T06:08:41.689Z,18.30
2023-03-05T06:09:14.706Z,18.10
2023-03-05T06:09:47.051Z,18.13
2023-03-05T06:10:19.381Z,19.17
2023-03-05T06:10:55.709Z,19.20
2023-03-05T06:11:28.037Z,18.27
2023-03-05T06:12:00.331Z,18.10
2023-03-05T06:12:32.586Z,18.90
2023-03-05T06:13:05.133Z,19.17
2023-03-05T06:13:38.560Z,18.90
2023-03-05T06:14:11.991Z,19.77
2023-03-05T06:14:44.325Z,19.50
2023-03-05T06:15:16.733Z,19.47
2023-03-05T06:16:03.709Z,19.23
2023-03-05T06:16:36.070Z,20.57
2023-03-05T06:17:09.895Z,20.03
2023-03-05T06:17:43.453Z,19.67
2023-03-05T06:18:15.758Z,19.30
2023-03-05T06:18:48.292Z,19.43
2023-03-05T06:19:20.635Z,18.37
2023-03-05T06:19:55.016Z,18.90
2023-03-05T06:20:28.443Z,18.53
2023-03-05T06:21:05.068Z,17.70
2023-03-05T06:21:37.362Z,17.83
2023-03-05T06:22:09.651Z,18.27
2023-03-05T06:22:42.085Z,19.07
2023-03-05T06:23:14.394Z,19.23
2023-03-05T06:23:47.966Z,18.70
2023-03-05T06:24:20.331Z,19.07
2023-03-05T06:24:52.653Z,20.13
2023-03-05T06:25:24.964Z,19.00
2023-03-05T06:26:03.231Z,19.10
2023-03-05T06:26:35.532Z,19.23
2023-03-05T06:27:07.881Z,19.07
2023-03-05T06:27:40.146Z,18.60
2023-03-05T06:28:12.451Z,18.97
2023-03-05T06:28:45.033Z,18.83
2023-03-05T06:29:18.323Z,19.17
2023-03-05T06:29:53.371Z,18.50
2023-03-05T06:30:25.627Z,19.17
2023-03-05T06:31:10.312Z,18.97
2023-03-05T06:31:42.719Z,20.03
2023-03-05T06:32:15.170Z,20.73
2023-03-05T06:32:47.544Z,19.43
2023-03-05T06:33:20.554Z,19.87
2023-03-05T06:33:55.778Z,20.57
2023-03-05T06:34:28.080Z,19.33
2023-03-05T06:35:00.391Z,19.43
2023-03-05T06:35:34.026Z,19.47
2023-03-05T06:36:08.310Z,19.47
2023-03-05T06:36:40.681Z,21.27
2023-03-05T06:37:12.984Z,19.03
2023-03-05T06:37:45.272Z,18.63
2023-03-05T06:38:17.558Z,19.67
2023-03-05T06:38:53.142Z,19.50
2023-03-05T06:39:25.628Z,19.17
2023-03-05T06:39:57.972Z,18.73
2023-03-05T06:40:30.351Z,19.73
2023-03-05T06:41:12.421Z,18.63
2023-03-05T06:41:44.864Z,19.87
2023-03-05T06:42:19.331Z,20.10
2023-03-05T06:42:51.594Z,19.80
2023-03-05T06:43:24.036Z,19.13
2023-03-05T06:43:57.335Z,18.27
2023-03-05T06:44:29.639Z,18.30
2023-03-05T06:45:01.995Z,17.43
2023-03-05T06:45:34.440Z,18.60
2023-03-05T06:46:23.306Z,19.03
2023-03-05T06:46:55.603Z,19.13
2023-03-05T06:47:27.881Z,19.50
2023-03-05T06:48:00.150Z,19.53
2023-03-05T06:48:32.544Z,18.87
2023-03-05T06:49:05.285Z,18.77
2023-03-05T06:49:38.814Z,18.67
2023-03-05T06:50:11.741Z,18.87
2023-03-05T06:50:44.008Z,19.77
2023-03-05T06:51:21.411Z,19.50
2023-03-05T06:51:53.697Z,19.07
2023-03-05T06:52:25.999Z,19.53
2023-03-05T06:52:58.304Z,19.50
2023-03-05T06:53:31.110Z,20.07
2023-03-05T06:54:07.253Z,21.30
2023-03-05T06:54:39.607Z,20.37
2023-03-05T06:55:11.959Z,19.80
2023-03-05T06:55:44.231Z,20.73
2023-03-05T06:56:18.002Z,22.93
2023-03-05T06:56:50.314Z,22.30
2023-03-05T06:57:23.319Z,22.70
2023-03-05T06:57:55.969Z,22.50
2023-03-05T06:58:28.275Z,20.27
2023-03-05T06:59:00.651Z,22.37
2023-03-05T06:59:32.951Z,21.03
2023-03-05T07:00:11.576Z,20.23
2023-03-05T07:00:44.650Z,19.63
2023-03-05T07:01:17.939Z,18.03
2023-03-05T07:01:50.474Z,20.53
2023-03-05T07:02:43.794Z,19.73
2023-03-05T07:03:37.377Z,20.07
2023-03-05T07:04:11.034Z,19.40
2023-03-05T07:04:43.337Z,19.83
2023-03-05T07:05:15.696Z,19.40
2023-03-05T07:05:48.094Z,19.63
2023-03-05T07:06:21.619Z,20.37
2023-03-05T07:06:53.986Z,20.27
2023-03-05T07:07:26.293Z,19.27
2023-03-05T07:07:58.560Z,19.43
2023-03-05T07:08:31.077Z,18.23
2023-03-05T07:09:04.366Z,19.70
2023-03-05T07:09:42.850Z,20.50
2023-03-05T07:10:15.180Z,19.93